sensor_id;sensor_type;location;lat;lon;timestamp;pressure;altitude;pressure_sealevel;temperature;humidity
13800;BME280;6971;50.028;9.258;2022-11-14T00:03:04;99498.56;;;4.46;100.00
13800;BME280;6971;50.028;9.258;2022-11-14T00:08:06;99503.38;;;4.30;100.00
13800;BME280;6971;50.028;9.258;2022-11-14T00:13:07;99505.34;;;4.20;100.00
13800;BME280;6971;50.028;9.258;2022-11-14T00:18:08;99492.97;;;3.95;100.00
13800;BME280;6971;50.028;9.258;2022-11-14T00:23:08;99494.91;;;3.87;100.00
13800;BME280;6971;50.028;9.258;2022-11-14T00:28:09;99490.97;;;3.70;100.00
13800;BME280;6971;50.028;9.258;2022-11-14T00:33:10;99491.06;;;3.65;100.00
13800;BME280;6971;50.028;9.258;2022-11-14T00:38:10;99491.53;;;3.47;100.00
13800;BME280;6971;50.028;9.258;2022-11-14T00:43:11;99497.72;;;3.41;100.00
13800;BME280;6971;50.028;9.258;2022-11-14T00:48:14;99492.00;;;3.26;100.00
13800;BME280;6971;50.028;9.258;2022-11-14T00:53:14;99475.75;;;3.15;100.00
13800;BME280;6971;50.028;9.258;2022-11-14T00:58:15;99471.66;;;3.03;100.00
13800;BME280;6971;50.028;9.258;2022-11-14T01:03:16;99461.56;;;2.89;100.00
13800;BME280;6971;50.028;9.258;2022-11-14T01:08:18;99461.78;;;2.80;100.00
13800;BME280;6971;50.028;9.258;2022-11-14T01:13:41;99454.75;;;2.83;100.00
13800;BME280;6971;50.028;9.258;2022-11-14T01:18:42;99455.75;;;2.76;100.00
13800;BME280;6971;50.028;9.258;2022-11-14T01:23:43;99442.16;;;2.63;100.00
13800;BME280;6971;50.028;9.258;2022-11-14T01:28:44;99430.09;;;2.59;100.00
13800;BME280;6971;50.028;9.258;2022-11-14T01:33:51;99423.31;;;2.50;100.00
13800;BME280;6971;50.028;9.258;2022-11-14T01:38:53;99416.81;;;2.30;100.00
13800;BME280;6971;50.028;9.258;2022-11-14T01:44:16;99417.78;;;2.25;100.00
13800;BME280;6971;50.028;9.258;2022-11-14T01:49:22;99419.69;;;2.15;100.00
13800;BME280;6971;50.028;9.258;2022-11-14T01:54:36;99415.53;;;2.06;100.00
13800;BME280;6971;50.028;9.258;2022-11-14T01:59:40;99399.94;;;2.06;100.00
13800;BME280;6971;50.028;9.258;2022-11-14T02:04:46;99398.28;;;2.02;100.00
13800;BME280;6971;50.028;9.258;2022-11-14T02:09:47;99393.25;;;1.94;100.00
13800;BME280;6971;50.028;9.258;2022-11-14T02:14:53;99395.03;;;1.90;100.00
13800;BME280;6971;50.028;9.258;2022-11-14T02:25:03;99383.94;;;1.82;100.00
13800;BME280;6971;50.028;9.258;2022-11-14T02:30:07;99379.59;;;1.81;100.00
13800;BME280;6971;50.028;9.258;2022-11-14T02:35:08;99368.44;;;1.76;100.00
13800;BME280;6971;50.028;9.258;2022-11-14T02:40:09;99366.78;;;1.72;100.00
13800;BME280;6971;50.028;9.258;2022-11-14T02:45:11;99363.38;;;1.69;100.00
13800;BME280;6971;50.028;9.258;2022-11-14T02:50:13;99353.06;;;1.63;100.00
13800;BME280;6971;50.028;9.258;2022-11-14T02:55:14;99342.84;;;1.55;100.00
13800;BME280;6971;50.028;9.258;2022-11-14T03:00:15;99331.66;;;1.52;100.00
13800;BME280;6971;50.028;9.258;2022-11-14T03:05:16;99323.97;;;1.46;100.00
13800;BME280;6971;50.028;9.258;2022-11-14T03:10:17;99318.78;;;1.44;100.00
13800;BME280;6971;50.028;9.258;2022-11-14T03:15:17;99321.44;;;1.42;100.00
13800;BME280;6971;50.028;9.258;2022-11-14T03:20:18;99338.97;;;1.28;100.00
13800;BME280;6971;50.028;9.258;2022-11-14T03:25:19;99328.59;;;1.28;100.00
13800;BME280;6971;50.028;9.258;2022-11-14T03:30:20;99330.41;;;1.23;100.00
13800;BME280;6971;50.028;9.258;2022-11-14T03:35:41;99325.38;;;1.13;100.00
13800;BME280;6971;50.028;9.258;2022-11-14T03:40:42;99324.59;;;1.10;100.00
13800;BME280;6971;50.028;9.258;2022-11-14T03:45:43;99320.41;;;0.99;100.00
13800;BME280;6971;50.028;9.258;2022-11-14T03:50:44;99315.28;;;0.98;100.00
13800;BME280;6971;50.028;9.258;2022-11-14T03:55:45;99311.78;;;1.00;100.00
13800;BME280;6971;50.028;9.258;2022-11-14T04:00:46;99298.91;;;0.93;100.00
13800;BME280;6971;50.028;9.258;2022-11-14T04:05:47;99301.72;;;0.80;100.00
13800;BME280;6971;50.028;9.258;2022-11-14T04:10:49;99302.41;;;0.90;100.00
13800;BME280;6971;50.028;9.258;2022-11-14T04:15:58;99302.56;;;0.81;100.00
13800;BME280;6971;50.028;9.258;2022-11-14T04:20:59;99296.53;;;0.78;100.00
13800;BME280;6971;50.028;9.258;2022-11-14T04:25:59;99285.31;;;0.76;100.00
13800;BME280;6971;50.028;9.258;2022-11-14T04:31:00;99294.03;;;0.72;100.00
13800;BME280;6971;50.028;9.258;2022-11-14T04:36:01;99295.88;;;0.64;100.00
13800;BME280;6971;50.028;9.258;2022-11-14T04:41:05;99304.25;;;0.83;100.00
13800;BME280;6971;50.028;9.258;2022-11-14T04:46:06;99288.69;;;0.82;100.00
13800;BME280;6971;50.028;9.258;2022-11-14T04:51:06;99284.34;;;0.85;100.00
13800;BME280;6971;50.028;9.258;2022-11-14T04:56:22;99279.06;;;0.88;100.00
13800;BME280;6971;50.028;9.258;2022-11-14T05:01:25;99280.53;;;1.05;100.00
13800;BME280;6971;50.028;9.258;2022-11-14T05:06:25;99278.47;;;1.24;100.00
13800;BME280;6971;50.028;9.258;2022-11-14T05:11:26;99274.03;;;1.31;100.00
13800;BME280;6971;50.028;9.258;2022-11-14T05:16:27;99265.97;;;1.47;100.00
13800;BME280;6971;50.028;9.258;2022-11-14T05:21:33;99279.47;;;1.64;100.00
13800;BME280;6971;50.028;9.258;2022-11-14T05:26:35;99279.88;;;1.87;100.00
13800;BME280;6971;50.028;9.258;2022-11-14T05:31:36;99284.38;;;2.21;100.00
13800;BME280;6971;50.028;9.258;2022-11-14T05:36:36;99282.19;;;2.78;100.00
13800;BME280;6971;50.028;9.258;2022-11-14T05:41:37;99296.09;;;3.13;100.00
13800;BME280;6971;50.028;9.258;2022-11-14T05:46:38;99299.00;;;3.34;100.00
13800;BME280;6971;50.028;9.258;2022-11-14T05:51:58;99305.53;;;3.51;100.00
13800;BME280;6971;50.028;9.258;2022-11-14T05:56:59;99303.63;;;3.58;100.00
13800;BME280;6971;50.028;9.258;2022-11-14T06:02:00;99321.09;;;3.54;100.00
13800;BME280;6971;50.028;9.258;2022-11-14T06:07:01;99312.66;;;3.44;100.00
13800;BME280;6971;50.028;9.258;2022-11-14T06:12:01;99321.16;;;3.51;100.00
13800;BME280;6971;50.028;9.258;2022-11-14T06:17:05;99324.50;;;3.56;100.00
13800;BME280;6971;50.028;9.258;2022-11-14T06:22:16;99316.72;;;3.55;100.00
13800;BME280;6971;50.028;9.258;2022-11-14T06:27:17;99311.66;;;3.50;100.00
13800;BME280;6971;50.028;9.258;2022-11-14T06:32:18;99309.97;;;3.47;100.00
13800;BME280;6971;50.028;9.258;2022-11-14T06:37:19;99322.03;;;3.51;100.00
13800;BME280;6971;50.028;9.258;2022-11-14T06:42:20;99327.16;;;3.55;100.00
13800;BME280;6971;50.028;9.258;2022-11-14T06:47:20;99340.00;;;3.62;100.00
13800;BME280;6971;50.028;9.258;2022-11-14T06:52:21;99346.22;;;3.57;100.00
13800;BME280;6971;50.028;9.258;2022-11-14T06:57:22;99335.75;;;3.58;100.00
13800;BME280;6971;50.028;9.258;2022-11-14T07:02:23;99324.44;;;3.59;100.00
13800;BME280;6971;50.028;9.258;2022-11-14T07:07:23;99320.88;;;3.62;100.00
13800;BME280;6971;50.028;9.258;2022-11-14T07:12:24;99326.00;;;3.67;100.00
13800;BME280;6971;50.028;9.258;2022-11-14T07:17:25;99346.78;;;3.68;100.00
13800;BME280;6971;50.028;9.258;2022-11-14T07:22:40;99339.75;;;3.72;100.00
13800;BME280;6971;50.028;9.258;2022-11-14T07:27:41;99317.91;;;3.76;100.00
13800;BME280;6971;50.028;9.258;2022-11-14T07:32:41;99327.94;;;3.90;100.00
13800;BME280;6971;50.028;9.258;2022-11-14T07:37:42;99309.25;;;4.05;100.00
13800;BME280;6971;50.028;9.258;2022-11-14T07:42:43;99298.63;;;4.12;100.00
13800;BME280;6971;50.028;9.258;2022-11-14T07:47:44;99326.44;;;4.13;100.00
13800;BME280;6971;50.028;9.258;2022-11-14T07:52:49;99334.09;;;4.19;100.00
13800;BME280;6971;50.028;9.258;2022-11-14T07:57:54;99347.75;;;4.27;100.00
13800;BME280;6971;50.028;9.258;2022-11-14T08:02:55;99339.84;;;4.30;100.00
13800;BME280;6971;50.028;9.258;2022-11-14T08:07:56;99335.53;;;4.58;100.00
13800;BME280;6971;50.028;9.258;2022-11-14T08:13:03;99345.81;;;4.64;100.00
13800;BME280;6971;50.028;9.258;2022-11-14T08:18:04;99327.91;;;4.52;100.00
13800;BME280;6971;50.028;9.258;2022-11-14T08:23:06;99343.69;;;4.47;100.00
13800;BME280;6971;50.028;9.258;2022-11-14T08:28:07;99335.78;;;4.50;100.00
13800;BME280;6971;50.028;9.258;2022-11-14T08:33:08;99356.25;;;4.64;100.00
13800;BME280;6971;50.028;9.258;2022-11-14T08:38:10;99352.81;;;4.62;100.00
13800;BME280;6971;50.028;9.258;2022-11-14T08:43:11;99357.44;;;4.52;100.00
13800;BME280;6971;50.028;9.258;2022-11-14T08:48:12;99373.91;;;4.85;100.00
13800;BME280;6971;50.028;9.258;2022-11-14T08:53:13;99368.97;;;4.75;100.00
13800;BME280;6971;50.028;9.258;2022-11-14T08:58:14;99364.03;;;4.66;100.00
13800;BME280;6971;50.028;9.258;2022-11-14T09:03:15;99368.44;;;4.64;100.00
13800;BME280;6971;50.028;9.258;2022-11-14T09:08:16;99363.53;;;4.81;100.00
13800;BME280;6971;50.028;9.258;2022-11-14T09:13:17;99349.44;;;4.87;100.00
13800;BME280;6971;50.028;9.258;2022-11-14T09:18:18;99334.06;;;4.78;100.00
13800;BME280;6971;50.028;9.258;2022-11-14T09:23:26;99330.59;;;5.04;100.00
13800;BME280;6971;50.028;9.258;2022-11-14T09:28:27;99333.69;;;5.68;100.00
13800;BME280;6971;50.028;9.258;2022-11-14T09:33:28;99321.72;;;6.34;100.00
13800;BME280;6971;50.028;9.258;2022-11-14T09:38:29;99333.53;;;6.91;100.00
13800;BME280;6971;50.028;9.258;2022-11-14T09:48:40;99324.28;;;7.67;96.93
13800;BME280;6971;50.028;9.258;2022-11-14T09:53:54;99324.75;;;8.15;94.97
13800;BME280;6971;50.028;9.258;2022-11-14T09:58:57;99307.88;;;8.40;91.15
13800;BME280;6971;50.028;9.258;2022-11-14T10:19:38;99294.50;;;9.19;86.68
13800;BME280;6971;50.028;9.258;2022-11-14T10:25:12;99301.47;;;9.20;85.57
13800;BME280;6971;50.028;9.258;2022-11-14T10:30:18;99320.03;;;8.99;86.17
13800;BME280;6971;50.028;9.258;2022-11-14T10:40:58;99316.41;;;9.37;84.43
13800;BME280;6971;50.028;9.258;2022-11-14T10:46:22;99322.75;;;9.15;84.89
13800;BME280;6971;50.028;9.258;2022-11-14T10:56:31;99305.19;;;8.22;90.51
13800;BME280;6971;50.028;9.258;2022-11-14T11:01:39;99296.13;;;8.30;91.57
13800;BME280;6971;50.028;9.258;2022-11-14T11:06:40;99292.66;;;7.70;94.63
13800;BME280;6971;50.028;9.258;2022-11-14T11:11:52;99289.53;;;7.41;98.48
13800;BME280;6971;50.028;9.258;2022-11-14T11:22:36;99283.94;;;7.49;100.00
13800;BME280;6971;50.028;9.258;2022-11-14T11:27:38;99260.19;;;7.92;98.23
13800;BME280;6971;50.028;9.258;2022-11-14T11:32:43;99255.19;;;8.62;93.83
13800;BME280;6971;50.028;9.258;2022-11-14T11:37:50;99260.13;;;9.06;90.36
13800;BME280;6971;50.028;9.258;2022-11-14T11:42:56;99257.84;;;8.43;93.90
13800;BME280;6971;50.028;9.258;2022-11-14T11:48:14;99242.06;;;8.06;96.75
13800;BME280;6971;50.028;9.258;2022-11-14T11:53:31;99257.00;;;8.04;98.08
13800;BME280;6971;50.028;9.258;2022-11-14T11:58:40;99249.25;;;8.40;96.53
13800;BME280;6971;50.028;9.258;2022-11-14T12:03:49;99232.69;;;8.01;98.55
13800;BME280;6971;50.028;9.258;2022-11-14T12:19:56;99237.00;;;8.02;100.00
13800;BME280;6971;50.028;9.258;2022-11-14T12:30:23;99230.78;;;8.60;96.60
13800;BME280;6971;50.028;9.258;2022-11-14T12:35:28;99217.00;;;8.18;97.82
13800;BME280;6971;50.028;9.258;2022-11-14T12:40:35;99211.53;;;8.23;98.90
13800;BME280;6971;50.028;9.258;2022-11-14T12:50:42;99221.56;;;7.95;100.00
13800;BME280;6971;50.028;9.258;2022-11-14T13:05:54;99202.69;;;7.87;100.00
13800;BME280;6971;50.028;9.258;2022-11-14T13:10:57;99205.31;;;7.87;100.00
13800;BME280;6971;50.028;9.258;2022-11-14T13:16:02;99208.13;;;8.02;100.00
13800;BME280;6971;50.028;9.258;2022-11-14T13:21:27;99208.81;;;7.88;100.00
13800;BME280;6971;50.028;9.258;2022-11-14T13:26:50;99195.59;;;7.89;100.00
13800;BME280;6971;50.028;9.258;2022-11-14T13:31:51;99182.19;;;7.95;100.00
13800;BME280;6971;50.028;9.258;2022-11-14T13:38:02;99182.69;;;8.04;100.00
13800;BME280;6971;50.028;9.258;2022-11-14T13:52:58;99173.75;;;8.08;100.00
13800;BME280;6971;50.028;9.258;2022-11-14T14:03:33;99161.06;;;8.16;100.00
13800;BME280;6971;50.028;9.258;2022-11-14T14:14:13;99155.06;;;8.14;100.00
13800;BME280;6971;50.028;9.258;2022-11-14T14:24:57;99138.09;;;8.21;100.00
13800;BME280;6971;50.028;9.258;2022-11-14T14:30:12;99136.69;;;8.14;100.00
13800;BME280;6971;50.028;9.258;2022-11-14T14:35:23;99136.69;;;8.14;100.00
13800;BME280;6971;50.028;9.258;2022-11-14T14:40:30;99139.47;;;8.11;100.00
13800;BME280;6971;50.028;9.258;2022-11-14T14:45:45;99124.22;;;8.00;100.00
13800;BME280;6971;50.028;9.258;2022-11-14T14:50:51;99136.78;;;7.93;100.00
13800;BME280;6971;50.028;9.258;2022-11-14T14:55:56;99119.03;;;7.81;100.00
13800;BME280;6971;50.028;9.258;2022-11-14T15:01:02;99120.81;;;7.80;100.00
13800;BME280;6971;50.028;9.258;2022-11-14T15:06:29;99117.56;;;7.75;100.00
13800;BME280;6971;50.028;9.258;2022-11-14T15:11:35;99120.50;;;7.67;100.00
13800;BME280;6971;50.028;9.258;2022-11-14T15:16:39;99127.63;;;7.65;100.00
13800;BME280;6971;50.028;9.258;2022-11-14T15:21:40;99132.72;;;7.68;100.00
13800;BME280;6971;50.028;9.258;2022-11-14T15:26:44;99120.59;;;7.66;100.00
13800;BME280;6971;50.028;9.258;2022-11-14T15:31:48;99122.16;;;7.70;100.00
13800;BME280;6971;50.028;9.258;2022-11-14T15:47:35;99099.81;;;7.61;100.00
13800;BME280;6971;50.028;9.258;2022-11-14T15:58:01;99104.66;;;7.32;100.00
13800;BME280;6971;50.028;9.258;2022-11-14T16:03:02;99101.59;;;7.22;100.00
13800;BME280;6971;50.028;9.258;2022-11-14T16:08:03;99093.78;;;7.01;100.00
13800;BME280;6971;50.028;9.258;2022-11-14T16:13:04;99106.53;;;7.09;100.00
13800;BME280;6971;50.028;9.258;2022-11-14T16:18:05;99109.47;;;7.22;100.00
13800;BME280;6971;50.028;9.258;2022-11-14T16:23:05;99107.03;;;7.17;100.00
13800;BME280;6971;50.028;9.258;2022-11-14T16:28:06;99110.31;;;7.23;100.00
13800;BME280;6971;50.028;9.258;2022-11-14T16:33:08;99111.50;;;7.54;100.00
13800;BME280;6971;50.028;9.258;2022-11-14T16:38:11;99104.38;;;7.38;100.00
13800;BME280;6971;50.028;9.258;2022-11-14T16:43:13;99113.00;;;7.40;100.00
13800;BME280;6971;50.028;9.258;2022-11-14T16:48:14;99119.69;;;7.48;100.00
13800;BME280;6971;50.028;9.258;2022-11-14T16:53:24;99120.38;;;7.51;100.00
13800;BME280;6971;50.028;9.258;2022-11-14T16:58:25;99121.88;;;7.57;100.00
13800;BME280;6971;50.028;9.258;2022-11-14T17:03:26;99115.25;;;7.67;100.00
13800;BME280;6971;50.028;9.258;2022-11-14T17:08:27;99121.31;;;8.06;100.00
13800;BME280;6971;50.028;9.258;2022-11-14T17:13:28;99120.75;;;8.36;100.00
13800;BME280;6971;50.028;9.258;2022-11-14T17:18:30;99121.75;;;9.21;100.00
13800;BME280;6971;50.028;9.258;2022-11-14T17:23:32;99124.59;;;9.98;100.00
13800;BME280;6971;50.028;9.258;2022-11-14T17:28:34;99123.88;;;10.11;100.00
13800;BME280;6971;50.028;9.258;2022-11-14T17:33:36;99122.63;;;10.49;100.00
13800;BME280;6971;50.028;9.258;2022-11-14T17:38:37;99139.81;;;10.40;100.00
13800;BME280;6971;50.028;9.258;2022-11-14T17:43:38;99140.03;;;10.04;100.00
13800;BME280;6971;50.028;9.258;2022-11-14T17:48:39;99126.97;;;10.34;100.00
13800;BME280;6971;50.028;9.258;2022-11-14T17:53:40;99136.03;;;10.60;100.00
13800;BME280;6971;50.028;9.258;2022-11-14T17:58:41;99134.59;;;10.54;100.00
13800;BME280;6971;50.028;9.258;2022-11-14T18:03:43;99135.56;;;10.68;100.00
13800;BME280;6971;50.028;9.258;2022-11-14T18:08:44;99136.91;;;10.61;100.00
13800;BME280;6971;50.028;9.258;2022-11-14T18:13:45;99128.31;;;10.41;100.00
13800;BME280;6971;50.028;9.258;2022-11-14T18:18:46;99136.56;;;9.88;100.00
13800;BME280;6971;50.028;9.258;2022-11-14T18:23:51;99127.63;;;9.42;100.00
13800;BME280;6971;50.028;9.258;2022-11-14T18:28:54;99132.53;;;9.32;100.00
13800;BME280;6971;50.028;9.258;2022-11-14T18:33:56;99141.94;;;9.20;100.00
13800;BME280;6971;50.028;9.258;2022-11-14T18:38:57;99133.16;;;9.04;100.00
13800;BME280;6971;50.028;9.258;2022-11-14T18:43:57;99137.72;;;9.00;100.00
13800;BME280;6971;50.028;9.258;2022-11-14T18:48:58;99146.56;;;8.99;100.00
13800;BME280;6971;50.028;9.258;2022-11-14T18:53:59;99149.06;;;9.00;100.00
13800;BME280;6971;50.028;9.258;2022-11-14T18:59:00;99151.16;;;8.94;100.00
13800;BME280;6971;50.028;9.258;2022-11-14T19:04:04;99140.31;;;9.18;100.00
13800;BME280;6971;50.028;9.258;2022-11-14T19:09:07;99143.44;;;9.74;100.00
13800;BME280;6971;50.028;9.258;2022-11-14T19:14:08;99143.72;;;9.86;100.00
13800;BME280;6971;50.028;9.258;2022-11-14T19:19:09;99153.72;;;10.42;100.00
13800;BME280;6971;50.028;9.258;2022-11-14T19:24:10;99161.41;;;10.30;100.00
13800;BME280;6971;50.028;9.258;2022-11-14T19:29:11;99159.28;;;10.37;100.00
13800;BME280;6971;50.028;9.258;2022-11-14T19:34:15;99163.53;;;10.70;100.00
13800;BME280;6971;50.028;9.258;2022-11-14T19:39:16;99156.56;;;10.69;100.00
13800;BME280;6971;50.028;9.258;2022-11-14T19:44:17;99160.25;;;10.67;100.00
13800;BME280;6971;50.028;9.258;2022-11-14T19:49:18;99153.00;;;10.70;100.00
13800;BME280;6971;50.028;9.258;2022-11-14T19:54:19;99154.16;;;10.81;98.51
13800;BME280;6971;50.028;9.258;2022-11-14T19:59:20;99159.06;;;10.87;96.55
13800;BME280;6971;50.028;9.258;2022-11-14T20:04:21;99147.66;;;10.87;97.80
13800;BME280;6971;50.028;9.258;2022-11-14T20:09:21;99143.88;;;10.76;100.00
13800;BME280;6971;50.028;9.258;2022-11-14T20:14:22;99155.91;;;10.66;100.00
13800;BME280;6971;50.028;9.258;2022-11-14T20:19:23;99154.47;;;10.60;100.00
13800;BME280;6971;50.028;9.258;2022-11-14T20:24:24;99155.56;;;10.25;100.00
13800;BME280;6971;50.028;9.258;2022-11-14T20:29:25;99156.88;;;10.32;100.00
13800;BME280;6971;50.028;9.258;2022-11-14T20:34:27;99165.25;;;10.09;100.00
13800;BME280;6971;50.028;9.258;2022-11-14T20:39:28;99158.63;;;9.69;100.00
13800;BME280;6971;50.028;9.258;2022-11-14T20:44:28;99153.41;;;9.35;100.00
13800;BME280;6971;50.028;9.258;2022-11-14T20:49:29;99160.78;;;9.29;100.00
13800;BME280;6971;50.028;9.258;2022-11-14T20:54:39;99153.56;;;9.32;100.00
13800;BME280;6971;50.028;9.258;2022-11-14T20:59:40;99155.69;;;9.25;100.00
13800;BME280;6971;50.028;9.258;2022-11-14T21:04:40;99164.41;;;9.10;100.00
13800;BME280;6971;50.028;9.258;2022-11-14T21:09:41;99155.91;;;8.87;100.00
13800;BME280;6971;50.028;9.258;2022-11-14T21:14:42;99172.38;;;8.55;100.00
13800;BME280;6971;50.028;9.258;2022-11-14T21:19:43;99162.06;;;8.51;100.00
13800;BME280;6971;50.028;9.258;2022-11-14T21:24:44;99161.56;;;8.25;100.00
13800;BME280;6971;50.028;9.258;2022-11-14T21:29:44;99162.75;;;8.36;100.00
13800;BME280;6971;50.028;9.258;2022-11-14T21:34:45;99156.31;;;8.25;100.00
13800;BME280;6971;50.028;9.258;2022-11-14T21:39:46;99159.72;;;8.27;100.00
13800;BME280;6971;50.028;9.258;2022-11-14T21:44:48;99157.56;;;8.17;100.00
13800;BME280;6971;50.028;9.258;2022-11-14T21:49:49;99152.22;;;8.19;100.00
13800;BME280;6971;50.028;9.258;2022-11-14T21:54:55;99156.97;;;8.30;100.00
13800;BME280;6971;50.028;9.258;2022-11-14T21:59:56;99156.03;;;8.31;100.00
13800;BME280;6971;50.028;9.258;2022-11-14T22:04:57;99157.34;;;8.40;100.00
13800;BME280;6971;50.028;9.258;2022-11-14T22:09:58;99158.41;;;8.35;100.00
13800;BME280;6971;50.028;9.258;2022-11-14T22:14:59;99162.09;;;8.31;100.00
13800;BME280;6971;50.028;9.258;2022-11-14T22:20:00;99161.97;;;8.34;100.00
13800;BME280;6971;50.028;9.258;2022-11-14T22:25:01;99159.13;;;8.39;100.00
13800;BME280;6971;50.028;9.258;2022-11-14T22:30:17;99169.72;;;8.38;100.00
13800;BME280;6971;50.028;9.258;2022-11-14T22:35:17;99168.84;;;8.37;100.00
13800;BME280;6971;50.028;9.258;2022-11-14T22:40:21;99169.16;;;8.31;100.00
13800;BME280;6971;50.028;9.258;2022-11-14T22:45:23;99172.47;;;8.34;100.00
13800;BME280;6971;50.028;9.258;2022-11-14T22:50:24;99173.63;;;8.29;100.00
13800;BME280;6971;50.028;9.258;2022-11-14T22:55:25;99179.66;;;8.31;100.00
13800;BME280;6971;50.028;9.258;2022-11-14T23:00:26;99184.03;;;8.30;100.00
13800;BME280;6971;50.028;9.258;2022-11-14T23:05:26;99189.38;;;8.29;100.00
13800;BME280;6971;50.028;9.258;2022-11-14T23:10:27;99187.53;;;8.31;100.00
13800;BME280;6971;50.028;9.258;2022-11-14T23:15:28;99191.66;;;8.36;100.00
13800;BME280;6971;50.028;9.258;2022-11-14T23:20:29;99190.09;;;8.32;100.00
13800;BME280;6971;50.028;9.258;2022-11-14T23:25:35;99177.25;;;8.26;100.00
13800;BME280;6971;50.028;9.258;2022-11-14T23:30:36;99172.84;;;8.27;100.00
13800;BME280;6971;50.028;9.258;2022-11-14T23:35:37;99166.81;;;8.25;100.00
13800;BME280;6971;50.028;9.258;2022-11-14T23:40:40;99171.56;;;8.16;100.00
13800;BME280;6971;50.028;9.258;2022-11-14T23:45:41;99162.69;;;8.01;100.00
13800;BME280;6971;50.028;9.258;2022-11-14T23:50:43;99167.56;;;8.09;100.00
13800;BME280;6971;50.028;9.258;2022-11-14T23:56:04;99166.63;;;8.10;100.00
